sensor_id;sensor_type;location;lat;lon;timestamp;temperature;humidity
11093;DHT22;5600;50.864;6.102;2023-10-08T00:02:50;17.90;99.90
11093;DHT22;5600;50.864;6.102;2023-10-08T00:05:53;17.80;99.90
11093;DHT22;5600;50.864;6.102;2023-10-08T00:08:53;17.80;99.90
11093;DHT22;5600;50.864;6.102;2023-10-08T00:12:00;17.80;99.90
11093;DHT22;5600;50.864;6.102;2023-10-08T00:15:01;17.80;99.90
11093;DHT22;5600;50.864;6.102;2023-10-08T00:18:07;17.70;99.90
11093;DHT22;5600;50.864;6.102;2023-10-08T00:21:12;17.70;99.90
11093;DHT22;5600;50.864;6.102;2023-10-08T00:24:12;17.70;99.90
11093;DHT22;5600;50.864;6.102;2023-10-08T00:27:13;17.60;99.90
11093;DHT22;5600;50.864;6.102;2023-10-08T00:30:18;17.70;99.90
11093;DHT22;5600;50.864;6.102;2023-10-08T00:33:19;17.70;99.90
11093;DHT22;5600;50.864;6.102;2023-10-08T00:36:19;17.70;99.90
11093;DHT22;5600;50.864;6.102;2023-10-08T00:39:21;17.60;99.90
11093;DHT22;5600;50.864;6.102;2023-10-08T00:42:24;17.60;99.90
11093;DHT22;5600;50.864;6.102;2023-10-08T00:45:25;17.50;99.90
11093;DHT22;5600;50.864;6.102;2023-10-08T00:48:30;17.50;99.90
11093;DHT22;5600;50.864;6.102;2023-10-08T00:51:35;17.50;99.90
11093;DHT22;5600;50.864;6.102;2023-10-08T00:54:42;17.40;99.90
11093;DHT22;5600;50.864;6.102;2023-10-08T00:58:07;17.40;99.90
11093;DHT22;5600;50.864;6.102;2023-10-08T01:01:10;17.40;99.90
11093;DHT22;5600;50.864;6.102;2023-10-08T01:04:19;17.40;99.90
11093;DHT22;5600;50.864;6.102;2023-10-08T01:07:25;17.40;99.90
11093;DHT22;5600;50.864;6.102;2023-10-08T01:10:25;17.40;99.90
11093;DHT22;5600;50.864;6.102;2023-10-08T01:13:29;17.30;99.90
11093;DHT22;5600;50.864;6.102;2023-10-08T01:16:36;17.30;99.90
11093;DHT22;5600;50.864;6.102;2023-10-08T01:19:37;17.10;99.90
11093;DHT22;5600;50.864;6.102;2023-10-08T01:22:41;17.20;99.90
11093;DHT22;5600;50.864;6.102;2023-10-08T01:25:45;17.20;99.90
11093;DHT22;5600;50.864;6.102;2023-10-08T01:28:51;17.10;99.90
11093;DHT22;5600;50.864;6.102;2023-10-08T01:31:53;17.00;99.90
11093;DHT22;5600;50.864;6.102;2023-10-08T01:34:55;17.00;99.90
11093;DHT22;5600;50.864;6.102;2023-10-08T01:37:57;16.90;99.90
11093;DHT22;5600;50.864;6.102;2023-10-08T01:40:59;16.80;99.90
11093;DHT22;5600;50.864;6.102;2023-10-08T01:44:06;16.80;99.90
11093;DHT22;5600;50.864;6.102;2023-10-08T01:47:08;16.90;99.90
11093;DHT22;5600;50.864;6.102;2023-10-08T01:50:11;16.80;99.90
11093;DHT22;5600;50.864;6.102;2023-10-08T01:53:21;16.80;99.90
11093;DHT22;5600;50.864;6.102;2023-10-08T01:56:22;16.80;99.90
11093;DHT22;5600;50.864;6.102;2023-10-08T01:59:23;16.80;99.90
11093;DHT22;5600;50.864;6.102;2023-10-08T02:02:24;16.80;99.90
11093;DHT22;5600;50.864;6.102;2023-10-08T02:05:25;16.80;99.90
11093;DHT22;5600;50.864;6.102;2023-10-08T02:08:26;16.70;99.90
11093;DHT22;5600;50.864;6.102;2023-10-08T02:11:43;16.80;99.90
11093;DHT22;5600;50.864;6.102;2023-10-08T02:14:44;16.80;99.90
11093;DHT22;5600;50.864;6.102;2023-10-08T02:17:45;16.80;99.90
11093;DHT22;5600;50.864;6.102;2023-10-08T02:20:46;16.80;99.90
11093;DHT22;5600;50.864;6.102;2023-10-08T02:23:47;16.70;99.90
11093;DHT22;5600;50.864;6.102;2023-10-08T02:26:49;16.70;99.90
11093;DHT22;5600;50.864;6.102;2023-10-08T02:29:49;16.60;99.90
11093;DHT22;5600;50.864;6.102;2023-10-08T02:32:51;16.60;99.90
11093;DHT22;5600;50.864;6.102;2023-10-08T02:35:53;16.60;99.90
11093;DHT22;5600;50.864;6.102;2023-10-08T02:38:54;16.60;99.90
11093;DHT22;5600;50.864;6.102;2023-10-08T02:41:55;16.60;99.90
11093;DHT22;5600;50.864;6.102;2023-10-08T02:44:59;16.60;99.90
11093;DHT22;5600;50.864;6.102;2023-10-08T02:48:03;16.60;99.90
11093;DHT22;5600;50.864;6.102;2023-10-08T02:51:04;16.50;99.90
11093;DHT22;5600;50.864;6.102;2023-10-08T02:54:14;16.50;99.90
11093;DHT22;5600;50.864;6.102;2023-10-08T02:57:23;16.40;99.90
11093;DHT22;5600;50.864;6.102;2023-10-08T03:00:24;16.40;99.90
11093;DHT22;5600;50.864;6.102;2023-10-08T03:03:30;16.40;99.90
11093;DHT22;5600;50.864;6.102;2023-10-08T03:06:33;16.40;99.90
11093;DHT22;5600;50.864;6.102;2023-10-08T03:09:34;16.50;99.90
11093;DHT22;5600;50.864;6.102;2023-10-08T03:12:35;16.60;99.90
11093;DHT22;5600;50.864;6.102;2023-10-08T03:15:36;16.60;99.90
11093;DHT22;5600;50.864;6.102;2023-10-08T03:19:01;16.60;99.90
11093;DHT22;5600;50.864;6.102;2023-10-08T03:22:02;16.60;99.90
11093;DHT22;5600;50.864;6.102;2023-10-08T03:25:05;16.60;99.90
11093;DHT22;5600;50.864;6.102;2023-10-08T03:28:16;16.60;99.90
11093;DHT22;5600;50.864;6.102;2023-10-08T03:31:17;16.50;99.90
11093;DHT22;5600;50.864;6.102;2023-10-08T03:34:20;16.50;99.90
11093;DHT22;5600;50.864;6.102;2023-10-08T03:37:22;16.60;99.90
11093;DHT22;5600;50.864;6.102;2023-10-08T03:40:29;16.50;99.90
11093;DHT22;5600;50.864;6.102;2023-10-08T03:43:44;16.60;99.90
11093;DHT22;5600;50.864;6.102;2023-10-08T03:47:01;16.60;99.90
11093;DHT22;5600;50.864;6.102;2023-10-08T03:50:10;16.60;99.90
11093;DHT22;5600;50.864;6.102;2023-10-08T03:53:12;16.60;99.90
11093;DHT22;5600;50.864;6.102;2023-10-08T03:56:12;16.50;99.90
11093;DHT22;5600;50.864;6.102;2023-10-08T03:59:15;16.40;99.90
11093;DHT22;5600;50.864;6.102;2023-10-08T04:02:34;16.40;99.90
11093;DHT22;5600;50.864;6.102;2023-10-08T04:05:42;16.40;99.90
11093;DHT22;5600;50.864;6.102;2023-10-08T04:09:15;16.40;99.90
11093;DHT22;5600;50.864;6.102;2023-10-08T04:12:19;16.30;99.90
11093;DHT22;5600;50.864;6.102;2023-10-08T04:15:20;16.30;99.90
11093;DHT22;5600;50.864;6.102;2023-10-08T04:18:20;16.20;99.90
11093;DHT22;5600;50.864;6.102;2023-10-08T04:21:24;16.20;99.90
11093;DHT22;5600;50.864;6.102;2023-10-08T04:24:28;16.10;99.90
11093;DHT22;5600;50.864;6.102;2023-10-08T04:27:28;16.10;99.90
11093;DHT22;5600;50.864;6.102;2023-10-08T04:30:34;16.10;99.90
11093;DHT22;5600;50.864;6.102;2023-10-08T04:33:36;16.10;99.90
11093;DHT22;5600;50.864;6.102;2023-10-08T04:36:36;16.20;99.90
11093;DHT22;5600;50.864;6.102;2023-10-08T04:39:40;16.20;99.90
11093;DHT22;5600;50.864;6.102;2023-10-08T04:42:47;16.20;99.90
11093;DHT22;5600;50.864;6.102;2023-10-08T04:45:48;16.20;99.90
11093;DHT22;5600;50.864;6.102;2023-10-08T04:48:50;16.20;99.90
11093;DHT22;5600;50.864;6.102;2023-10-08T04:51:55;16.10;99.90
11093;DHT22;5600;50.864;6.102;2023-10-08T04:54:57;16.20;99.90
11093;DHT22;5600;50.864;6.102;2023-10-08T04:58:06;16.10;99.90
11093;DHT22;5600;50.864;6.102;2023-10-08T05:01:19;16.20;99.90
11093;DHT22;5600;50.864;6.102;2023-10-08T05:04:41;16.20;99.90
11093;DHT22;5600;50.864;6.102;2023-10-08T05:07:48;16.20;99.90
11093;DHT22;5600;50.864;6.102;2023-10-08T05:10:49;16.10;99.90
11093;DHT22;5600;50.864;6.102;2023-10-08T05:14:16;16.00;99.90
11093;DHT22;5600;50.864;6.102;2023-10-08T05:17:28;16.00;99.90
11093;DHT22;5600;50.864;6.102;2023-10-08T05:20:44;16.00;99.90
11093;DHT22;5600;50.864;6.102;2023-10-08T05:23:59;16.00;99.90
11093;DHT22;5600;50.864;6.102;2023-10-08T05:27:09;15.90;99.90
11093;DHT22;5600;50.864;6.102;2023-10-08T05:30:30;15.80;99.90
11093;DHT22;5600;50.864;6.102;2023-10-08T05:33:53;15.80;99.90
11093;DHT22;5600;50.864;6.102;2023-10-08T05:37:15;15.70;99.90
11093;DHT22;5600;50.864;6.102;2023-10-08T05:40:32;15.70;99.90
11093;DHT22;5600;50.864;6.102;2023-10-08T05:44:06;15.60;99.90
11093;DHT22;5600;50.864;6.102;2023-10-08T05:47:24;15.50;99.90
11093;DHT22;5600;50.864;6.102;2023-10-08T05:50:34;15.40;99.90
11093;DHT22;5600;50.864;6.102;2023-10-08T05:53:55;15.40;99.90
11093;DHT22;5600;50.864;6.102;2023-10-08T05:57:03;15.40;99.90
11093;DHT22;5600;50.864;6.102;2023-10-08T06:00:07;15.30;99.90
11093;DHT22;5600;50.864;6.102;2023-10-08T06:03:08;15.30;99.90
11093;DHT22;5600;50.864;6.102;2023-10-08T06:06:22;15.20;99.90
11093;DHT22;5600;50.864;6.102;2023-10-08T06:09:24;15.10;99.90
11093;DHT22;5600;50.864;6.102;2023-10-08T06:12:35;15.00;99.90
11093;DHT22;5600;50.864;6.102;2023-10-08T06:15:51;14.80;99.90
11093;DHT22;5600;50.864;6.102;2023-10-08T06:19:06;14.70;99.90
11093;DHT22;5600;50.864;6.102;2023-10-08T06:22:06;14.60;99.90
11093;DHT22;5600;50.864;6.102;2023-10-08T06:25:07;14.60;99.90
11093;DHT22;5600;50.864;6.102;2023-10-08T06:28:18;14.50;99.90
11093;DHT22;5600;50.864;6.102;2023-10-08T06:31:20;14.50;99.90
11093;DHT22;5600;50.864;6.102;2023-10-08T06:34:25;14.40;99.90
11093;DHT22;5600;50.864;6.102;2023-10-08T06:37:28;14.40;99.90
11093;DHT22;5600;50.864;6.102;2023-10-08T06:40:30;14.30;99.90
11093;DHT22;5600;50.864;6.102;2023-10-08T06:43:41;14.30;99.90
11093;DHT22;5600;50.864;6.102;2023-10-08T06:46:49;14.30;99.90
11093;DHT22;5600;50.864;6.102;2023-10-08T06:49:53;14.40;99.90
11093;DHT22;5600;50.864;6.102;2023-10-08T06:52:53;14.40;99.90
11093;DHT22;5600;50.864;6.102;2023-10-08T06:55:54;14.40;99.90
11093;DHT22;5600;50.864;6.102;2023-10-08T06:58:57;14.40;99.90
11093;DHT22;5600;50.864;6.102;2023-10-08T07:01:59;14.50;99.90
11093;DHT22;5600;50.864;6.102;2023-10-08T07:05:00;14.50;99.90
11093;DHT22;5600;50.864;6.102;2023-10-08T07:08:10;14.60;99.90
11093;DHT22;5600;50.864;6.102;2023-10-08T07:11:13;14.60;99.90
11093;DHT22;5600;50.864;6.102;2023-10-08T07:14:14;14.70;99.90
11093;DHT22;5600;50.864;6.102;2023-10-08T07:17:15;14.80;99.90
11093;DHT22;5600;50.864;6.102;2023-10-08T07:20:20;14.90;99.90
11093;DHT22;5600;50.864;6.102;2023-10-08T07:23:23;15.10;99.90
11093;DHT22;5600;50.864;6.102;2023-10-08T07:26:30;15.40;99.90
11093;DHT22;5600;50.864;6.102;2023-10-08T07:29:37;15.60;99.90
11093;DHT22;5600;50.864;6.102;2023-10-08T07:32:37;15.90;99.90
11093;DHT22;5600;50.864;6.102;2023-10-08T07:35:39;16.10;99.90
11093;DHT22;5600;50.864;6.102;2023-10-08T07:38:42;16.30;99.90
11093;DHT22;5600;50.864;6.102;2023-10-08T07:41:43;16.60;99.90
11093;DHT22;5600;50.864;6.102;2023-10-08T07:44:44;16.90;99.90
11093;DHT22;5600;50.864;6.102;2023-10-08T07:47:45;17.30;99.90
11093;DHT22;5600;50.864;6.102;2023-10-08T07:50:46;17.70;99.90
11093;DHT22;5600;50.864;6.102;2023-10-08T07:53:46;18.10;99.90
11093;DHT22;5600;50.864;6.102;2023-10-08T07:56:47;18.60;99.90
11093;DHT22;5600;50.864;6.102;2023-10-08T07:59:50;18.90;99.90
11093;DHT22;5600;50.864;6.102;2023-10-08T08:02:55;19.20;99.90
11093;DHT22;5600;50.864;6.102;2023-10-08T08:05:57;19.50;99.90
11093;DHT22;5600;50.864;6.102;2023-10-08T08:08:59;19.90;99.90
11093;DHT22;5600;50.864;6.102;2023-10-08T08:11:59;20.20;99.90
11093;DHT22;5600;50.864;6.102;2023-10-08T08:15:05;20.50;99.90
11093;DHT22;5600;50.864;6.102;2023-10-08T08:18:15;20.90;99.90
11093;DHT22;5600;50.864;6.102;2023-10-08T08:21:23;21.40;99.90
11093;DHT22;5600;50.864;6.102;2023-10-08T08:24:23;21.40;99.90
11093;DHT22;5600;50.864;6.102;2023-10-08T08:27:36;21.70;99.90
11093;DHT22;5600;50.864;6.102;2023-10-08T08:30:39;22.10;99.90
11093;DHT22;5600;50.864;6.102;2023-10-08T08:33:41;22.10;99.90
11093;DHT22;5600;50.864;6.102;2023-10-08T08:36:53;22.30;99.90
11093;DHT22;5600;50.864;6.102;2023-10-08T08:39:57;22.20;99.90
11093;DHT22;5600;50.864;6.102;2023-10-08T08:42:59;21.80;99.90
11093;DHT22;5600;50.864;6.102;2023-10-08T08:46:04;21.70;99.90
11093;DHT22;5600;50.864;6.102;2023-10-08T08:49:08;21.40;99.90
11093;DHT22;5600;50.864;6.102;2023-10-08T08:52:08;20.40;99.90
11093;DHT22;5600;50.864;6.102;2023-10-08T08:55:09;21.00;99.90
11093;DHT22;5600;50.864;6.102;2023-10-08T08:58:15;21.00;99.90
11093;DHT22;5600;50.864;6.102;2023-10-08T09:01:17;21.10;99.90
11093;DHT22;5600;50.864;6.102;2023-10-08T09:04:28;21.10;99.90
11093;DHT22;5600;50.864;6.102;2023-10-08T09:07:35;21.00;99.90
11093;DHT22;5600;50.864;6.102;2023-10-08T09:10:37;20.90;99.90
11093;DHT22;5600;50.864;6.102;2023-10-08T09:13:38;20.80;99.90
11093;DHT22;5600;50.864;6.102;2023-10-08T09:16:38;20.90;99.90
11093;DHT22;5600;50.864;6.102;2023-10-08T09:19:39;21.00;99.90
11093;DHT22;5600;50.864;6.102;2023-10-08T09:22:40;21.00;99.90
11093;DHT22;5600;50.864;6.102;2023-10-08T09:25:43;20.80;99.90
11093;DHT22;5600;50.864;6.102;2023-10-08T09:28:47;20.80;99.90
11093;DHT22;5600;50.864;6.102;2023-10-08T09:31:59;20.90;99.90
11093;DHT22;5600;50.864;6.102;2023-10-08T09:35:00;20.90;99.90
11093;DHT22;5600;50.864;6.102;2023-10-08T09:38:06;20.80;99.90
11093;DHT22;5600;50.864;6.102;2023-10-08T09:41:10;20.90;99.90
11093;DHT22;5600;50.864;6.102;2023-10-08T09:44:12;20.90;99.90
11093;DHT22;5600;50.864;6.102;2023-10-08T09:47:17;20.90;99.90
11093;DHT22;5600;50.864;6.102;2023-10-08T09:50:29;20.90;99.90
11093;DHT22;5600;50.864;6.102;2023-10-08T09:53:52;21.10;99.90
11093;DHT22;5600;50.864;6.102;2023-10-08T09:56:56;21.10;99.90
11093;DHT22;5600;50.864;6.102;2023-10-08T09:59:58;21.10;99.90
11093;DHT22;5600;50.864;6.102;2023-10-08T10:03:00;21.00;99.90
11093;DHT22;5600;50.864;6.102;2023-10-08T10:06:04;21.00;99.90
11093;DHT22;5600;50.864;6.102;2023-10-08T10:09:20;21.00;99.90
11093;DHT22;5600;50.864;6.102;2023-10-08T10:12:26;21.20;99.90
11093;DHT22;5600;50.864;6.102;2023-10-08T10:15:27;21.20;99.90
11093;DHT22;5600;50.864;6.102;2023-10-08T10:18:33;21.20;99.90
11093;DHT22;5600;50.864;6.102;2023-10-08T10:21:34;21.30;99.90
11093;DHT22;5600;50.864;6.102;2023-10-08T10:24:36;21.40;99.90
11093;DHT22;5600;50.864;6.102;2023-10-08T10:30:59;21.60;99.90
11093;DHT22;5600;50.864;6.102;2023-10-08T10:34:11;21.70;99.90
11093;DHT22;5600;50.864;6.102;2023-10-08T10:37:13;21.70;99.90
11093;DHT22;5600;50.864;6.102;2023-10-08T10:40:23;21.70;99.90
11093;DHT22;5600;50.864;6.102;2023-10-08T10:43:39;21.80;99.90
11093;DHT22;5600;50.864;6.102;2023-10-08T10:46:45;21.90;99.90
11093;DHT22;5600;50.864;6.102;2023-10-08T10:49:52;22.10;99.90
11093;DHT22;5600;50.864;6.102;2023-10-08T10:52:54;22.10;99.90
11093;DHT22;5600;50.864;6.102;2023-10-08T10:55:55;22.10;99.90
11093;DHT22;5600;50.864;6.102;2023-10-08T10:59:04;22.00;99.90
11093;DHT22;5600;50.864;6.102;2023-10-08T11:02:16;22.10;99.90
11093;DHT22;5600;50.864;6.102;2023-10-08T11:05:33;22.20;99.90
11093;DHT22;5600;50.864;6.102;2023-10-08T11:08:37;22.20;99.90
11093;DHT22;5600;50.864;6.102;2023-10-08T11:11:38;22.30;99.90
11093;DHT22;5600;50.864;6.102;2023-10-08T11:14:46;22.20;99.90
11093;DHT22;5600;50.864;6.102;2023-10-08T11:17:47;22.20;99.90
11093;DHT22;5600;50.864;6.102;2023-10-08T11:20:50;22.20;99.90
11093;DHT22;5600;50.864;6.102;2023-10-08T11:24:10;22.20;99.90
11093;DHT22;5600;50.864;6.102;2023-10-08T11:27:17;22.30;99.90
11093;DHT22;5600;50.864;6.102;2023-10-08T11:30:29;22.30;99.90
11093;DHT22;5600;50.864;6.102;2023-10-08T11:33:34;22.40;99.90
11093;DHT22;5600;50.864;6.102;2023-10-08T11:36:37;22.40;99.90
11093;DHT22;5600;50.864;6.102;2023-10-08T11:39:53;22.40;99.90
11093;DHT22;5600;50.864;6.102;2023-10-08T11:42:58;22.30;99.90
11093;DHT22;5600;50.864;6.102;2023-10-08T11:45:59;22.10;99.90
11093;DHT22;5600;50.864;6.102;2023-10-08T11:49:06;22.00;99.90
11093;DHT22;5600;50.864;6.102;2023-10-08T11:52:07;21.90;99.90
11093;DHT22;5600;50.864;6.102;2023-10-08T11:55:12;21.90;99.90
11093;DHT22;5600;50.864;6.102;2023-10-08T11:58:19;21.80;99.90
11093;DHT22;5600;50.864;6.102;2023-10-08T12:01:21;22.00;99.90
11093;DHT22;5600;50.864;6.102;2023-10-08T12:04:22;22.00;99.90
11093;DHT22;5600;50.864;6.102;2023-10-08T12:07:23;22.10;99.90
11093;DHT22;5600;50.864;6.102;2023-10-08T12:10:28;22.30;99.90
11093;DHT22;5600;50.864;6.102;2023-10-08T12:13:32;22.30;99.90
11093;DHT22;5600;50.864;6.102;2023-10-08T12:16:33;22.30;99.90
11093;DHT22;5600;50.864;6.102;2023-10-08T12:19:37;22.40;99.90
11093;DHT22;5600;50.864;6.102;2023-10-08T12:22:40;22.40;99.90
11093;DHT22;5600;50.864;6.102;2023-10-08T12:25:42;22.40;99.90
11093;DHT22;5600;50.864;6.102;2023-10-08T12:28:51;22.40;99.90
11093;DHT22;5600;50.864;6.102;2023-10-08T12:31:54;22.30;99.90
11093;DHT22;5600;50.864;6.102;2023-10-08T12:34:54;22.30;99.90
11093;DHT22;5600;50.864;6.102;2023-10-08T12:37:56;22.40;99.90
11093;DHT22;5600;50.864;6.102;2023-10-08T12:40:57;22.50;99.90
11093;DHT22;5600;50.864;6.102;2023-10-08T12:44:00;22.50;99.90
11093;DHT22;5600;50.864;6.102;2023-10-08T12:47:03;22.40;99.90
11093;DHT22;5600;50.864;6.102;2023-10-08T12:50:07;22.60;99.90
11093;DHT22;5600;50.864;6.102;2023-10-08T12:53:09;22.70;99.90
11093;DHT22;5600;50.864;6.102;2023-10-08T12:56:11;22.80;99.90
11093;DHT22;5600;50.864;6.102;2023-10-08T12:59:22;22.80;99.90
11093;DHT22;5600;50.864;6.102;2023-10-08T13:02:25;22.90;99.90
11093;DHT22;5600;50.864;6.102;2023-10-08T13:05:28;22.80;99.90
11093;DHT22;5600;50.864;6.102;2023-10-08T13:08:32;22.80;99.90
11093;DHT22;5600;50.864;6.102;2023-10-08T13:11:34;23.00;99.90
11093;DHT22;5600;50.864;6.102;2023-10-08T13:14:35;23.10;99.90
11093;DHT22;5600;50.864;6.102;2023-10-08T13:17:39;23.30;99.90
11093;DHT22;5600;50.864;6.102;2023-10-08T13:20:43;23.70;99.90
11093;DHT22;5600;50.864;6.102;2023-10-08T13:23:45;23.80;99.90
11093;DHT22;5600;50.864;6.102;2023-10-08T13:26:47;24.10;99.90
11093;DHT22;5600;50.864;6.102;2023-10-08T13:29:51;24.40;99.90
11093;DHT22;5600;50.864;6.102;2023-10-08T13:32:52;24.50;99.90
11093;DHT22;5600;50.864;6.102;2023-10-08T13:35:54;24.90;99.90
11093;DHT22;5600;50.864;6.102;2023-10-08T13:38:55;25.20;99.90
11093;DHT22;5600;50.864;6.102;2023-10-08T13:41:56;25.40;99.90
11093;DHT22;5600;50.864;6.102;2023-10-08T13:45:02;25.30;99.90
11093;DHT22;5600;50.864;6.102;2023-10-08T13:48:09;25.00;99.90
11093;DHT22;5600;50.864;6.102;2023-10-08T13:51:19;24.60;99.90
11093;DHT22;5600;50.864;6.102;2023-10-08T13:54:26;24.40;99.90
11093;DHT22;5600;50.864;6.102;2023-10-08T13:57:29;24.20;99.90
11093;DHT22;5600;50.864;6.102;2023-10-08T14:00:34;24.00;99.90
11093;DHT22;5600;50.864;6.102;2023-10-08T14:03:36;23.90;99.90
11093;DHT22;5600;50.864;6.102;2023-10-08T14:06:38;23.90;99.90
11093;DHT22;5600;50.864;6.102;2023-10-08T14:09:46;23.90;99.90
11093;DHT22;5600;50.864;6.102;2023-10-08T14:12:47;23.90;99.90
11093;DHT22;5600;50.864;6.102;2023-10-08T14:15:51;23.80;99.90
11093;DHT22;5600;50.864;6.102;2023-10-08T14:18:56;23.80;99.90
11093;DHT22;5600;50.864;6.102;2023-10-08T14:22:00;23.90;99.90
11093;DHT22;5600;50.864;6.102;2023-10-08T14:25:03;23.80;99.90
11093;DHT22;5600;50.864;6.102;2023-10-08T14:28:13;23.80;99.90
11093;DHT22;5600;50.864;6.102;2023-10-08T14:31:22;23.80;99.90
11093;DHT22;5600;50.864;6.102;2023-10-08T14:34:25;23.80;99.90
11093;DHT22;5600;50.864;6.102;2023-10-08T14:37:45;23.90;99.90
11093;DHT22;5600;50.864;6.102;2023-10-08T14:41:05;23.90;99.90
11093;DHT22;5600;50.864;6.102;2023-10-08T14:44:24;24.00;99.90
11093;DHT22;5600;50.864;6.102;2023-10-08T14:47:29;23.80;99.90
11093;DHT22;5600;50.864;6.102;2023-10-08T14:50:30;23.80;99.90
11093;DHT22;5600;50.864;6.102;2023-10-08T14:53:34;23.80;99.90
11093;DHT22;5600;50.864;6.102;2023-10-08T14:56:36;23.80;99.90
11093;DHT22;5600;50.864;6.102;2023-10-08T14:59:37;23.60;99.90
11093;DHT22;5600;50.864;6.102;2023-10-08T15:02:38;23.50;99.90
11093;DHT22;5600;50.864;6.102;2023-10-08T15:05:40;23.40;99.90
11093;DHT22;5600;50.864;6.102;2023-10-08T15:08:41;23.40;99.90
11093;DHT22;5600;50.864;6.102;2023-10-08T15:11:42;23.40;99.90
11093;DHT22;5600;50.864;6.102;2023-10-08T15:14:44;23.30;99.90
11093;DHT22;5600;50.864;6.102;2023-10-08T15:17:46;23.30;99.90
11093;DHT22;5600;50.864;6.102;2023-10-08T15:20:47;23.10;99.90
11093;DHT22;5600;50.864;6.102;2023-10-08T15:23:48;23.10;99.90
11093;DHT22;5600;50.864;6.102;2023-10-08T15:26:50;23.00;99.90
11093;DHT22;5600;50.864;6.102;2023-10-08T15:29:53;23.00;99.90
11093;DHT22;5600;50.864;6.102;2023-10-08T15:32:54;23.00;99.90
11093;DHT22;5600;50.864;6.102;2023-10-08T15:35:55;22.90;99.90
11093;DHT22;5600;50.864;6.102;2023-10-08T15:38:57;22.80;99.90
11093;DHT22;5600;50.864;6.102;2023-10-08T15:41:58;22.80;99.90
11093;DHT22;5600;50.864;6.102;2023-10-08T15:44:59;22.60;99.90
11093;DHT22;5600;50.864;6.102;2023-10-08T15:48:00;22.60;99.90
11093;DHT22;5600;50.864;6.102;2023-10-08T15:51:01;22.60;99.90
11093;DHT22;5600;50.864;6.102;2023-10-08T15:54:03;22.50;99.90
11093;DHT22;5600;50.864;6.102;2023-10-08T15:57:04;22.40;99.90
11093;DHT22;5600;50.864;6.102;2023-10-08T16:00:06;22.40;99.90
11093;DHT22;5600;50.864;6.102;2023-10-08T16:03:08;22.30;99.90
11093;DHT22;5600;50.864;6.102;2023-10-08T16:06:10;22.30;99.90
11093;DHT22;5600;50.864;6.102;2023-10-08T16:09:11;22.10;99.90
11093;DHT22;5600;50.864;6.102;2023-10-08T16:12:12;22.00;99.90
11093;DHT22;5600;50.864;6.102;2023-10-08T16:15:14;21.90;99.90
11093;DHT22;5600;50.864;6.102;2023-10-08T16:18:15;21.70;99.90
11093;DHT22;5600;50.864;6.102;2023-10-08T16:21:18;21.50;99.90
11093;DHT22;5600;50.864;6.102;2023-10-08T16:24:22;21.50;99.90
11093;DHT22;5600;50.864;6.102;2023-10-08T16:27:25;21.40;99.90
11093;DHT22;5600;50.864;6.102;2023-10-08T16:30:27;21.30;99.90
11093;DHT22;5600;50.864;6.102;2023-10-08T16:33:28;21.10;99.90
11093;DHT22;5600;50.864;6.102;2023-10-08T16:36:31;21.00;99.90
11093;DHT22;5600;50.864;6.102;2023-10-08T16:39:32;20.70;99.90
11093;DHT22;5600;50.864;6.102;2023-10-08T16:42:33;20.60;99.90
11093;DHT22;5600;50.864;6.102;2023-10-08T16:45:36;20.40;99.90
11093;DHT22;5600;50.864;6.102;2023-10-08T16:48:37;20.20;99.90
11093;DHT22;5600;50.864;6.102;2023-10-08T16:51:38;20.10;99.90
11093;DHT22;5600;50.864;6.102;2023-10-08T16:54:40;19.90;99.90
11093;DHT22;5600;50.864;6.102;2023-10-08T16:57:41;19.70;99.90
11093;DHT22;5600;50.864;6.102;2023-10-08T17:00:43;19.60;99.90
11093;DHT22;5600;50.864;6.102;2023-10-08T17:03:44;19.40;99.90
11093;DHT22;5600;50.864;6.102;2023-10-08T17:06:45;19.30;99.90
11093;DHT22;5600;50.864;6.102;2023-10-08T17:09:46;19.20;99.90
11093;DHT22;5600;50.864;6.102;2023-10-08T17:12:48;19.10;99.90
11093;DHT22;5600;50.864;6.102;2023-10-08T17:15:52;19.00;99.90
11093;DHT22;5600;50.864;6.102;2023-10-08T17:18:53;18.80;99.90
11093;DHT22;5600;50.864;6.102;2023-10-08T17:21:55;18.70;99.90
11093;DHT22;5600;50.864;6.102;2023-10-08T17:24:56;18.50;99.90
11093;DHT22;5600;50.864;6.102;2023-10-08T17:27:59;18.40;99.90
11093;DHT22;5600;50.864;6.102;2023-10-08T17:31:00;18.30;99.90
11093;DHT22;5600;50.864;6.102;2023-10-08T17:34:00;18.10;99.90
11093;DHT22;5600;50.864;6.102;2023-10-08T17:37:05;18.00;99.90
11093;DHT22;5600;50.864;6.102;2023-10-08T17:40:07;17.80;99.90
11093;DHT22;5600;50.864;6.102;2023-10-08T17:43:09;17.70;99.90
11093;DHT22;5600;50.864;6.102;2023-10-08T17:46:12;17.60;99.90
11093;DHT22;5600;50.864;6.102;2023-10-08T17:49:14;17.50;99.90
11093;DHT22;5600;50.864;6.102;2023-10-08T17:52:14;17.40;99.90
11093;DHT22;5600;50.864;6.102;2023-10-08T17:55:16;17.30;99.90
11093;DHT22;5600;50.864;6.102;2023-10-08T17:58:18;17.20;99.90
11093;DHT22;5600;50.864;6.102;2023-10-08T18:01:27;17.10;99.90
11093;DHT22;5600;50.864;6.102;2023-10-08T18:04:29;17.10;99.90
11093;DHT22;5600;50.864;6.102;2023-10-08T18:07:31;17.00;99.90
11093;DHT22;5600;50.864;6.102;2023-10-08T18:10:31;17.00;99.90
11093;DHT22;5600;50.864;6.102;2023-10-08T18:13:35;16.90;99.90
11093;DHT22;5600;50.864;6.102;2023-10-08T18:16:45;16.80;99.90
11093;DHT22;5600;50.864;6.102;2023-10-08T18:19:47;16.70;99.90
11093;DHT22;5600;50.864;6.102;2023-10-08T18:22:50;16.60;99.90
11093;DHT22;5600;50.864;6.102;2023-10-08T18:25:51;16.50;99.90
11093;DHT22;5600;50.864;6.102;2023-10-08T18:28:55;16.50;99.90
11093;DHT22;5600;50.864;6.102;2023-10-08T18:31:56;16.40;99.90
11093;DHT22;5600;50.864;6.102;2023-10-08T18:34:59;16.40;99.90
11093;DHT22;5600;50.864;6.102;2023-10-08T18:37:59;16.30;99.90
11093;DHT22;5600;50.864;6.102;2023-10-08T18:41:02;16.20;99.90
11093;DHT22;5600;50.864;6.102;2023-10-08T18:44:03;16.20;99.90
11093;DHT22;5600;50.864;6.102;2023-10-08T18:47:04;16.10;99.90
11093;DHT22;5600;50.864;6.102;2023-10-08T18:50:06;16.00;99.90
11093;DHT22;5600;50.864;6.102;2023-10-08T18:53:10;16.00;99.90
11093;DHT22;5600;50.864;6.102;2023-10-08T18:56:12;15.90;99.90
11093;DHT22;5600;50.864;6.102;2023-10-08T18:59:14;15.90;99.90
11093;DHT22;5600;50.864;6.102;2023-10-08T19:02:15;15.80;99.90
11093;DHT22;5600;50.864;6.102;2023-10-08T19:05:17;15.80;99.90
11093;DHT22;5600;50.864;6.102;2023-10-08T19:08:19;15.70;99.90
11093;DHT22;5600;50.864;6.102;2023-10-08T19:11:21;15.70;99.90
11093;DHT22;5600;50.864;6.102;2023-10-08T19:14:24;15.70;99.90
11093;DHT22;5600;50.864;6.102;2023-10-08T19:17:25;15.60;99.90
11093;DHT22;5600;50.864;6.102;2023-10-08T19:20:26;15.60;99.90
11093;DHT22;5600;50.864;6.102;2023-10-08T19:23:28;15.50;99.90
11093;DHT22;5600;50.864;6.102;2023-10-08T19:26:29;15.40;99.90
11093;DHT22;5600;50.864;6.102;2023-10-08T19:29:30;15.40;99.90
11093;DHT22;5600;50.864;6.102;2023-10-08T19:32:33;15.30;99.90
11093;DHT22;5600;50.864;6.102;2023-10-08T19:35:35;15.30;99.90
11093;DHT22;5600;50.864;6.102;2023-10-08T19:38:39;15.20;99.90
11093;DHT22;5600;50.864;6.102;2023-10-08T19:41:39;15.20;99.90
11093;DHT22;5600;50.864;6.102;2023-10-08T19:44:40;15.10;99.90
11093;DHT22;5600;50.864;6.102;2023-10-08T19:47:44;15.10;99.90